createdAt,value
2022-10-19T00:02:21.291Z,52.15
2022-10-19T00:04:48.048Z,52.90
2022-10-19T00:07:14.806Z,52.67
2022-10-19T00:09:44.268Z,53.70
2022-10-19T00:12:12.492Z,51.50
2022-10-19T00:14:39.473Z,52.30
2022-10-19T00:17:06.292Z,52.55
2022-10-19T00:19:33.074Z,55.08
2022-10-19T00:21:59.832Z,53.35
2022-10-19T00:24:26.616Z,53.53
2022-10-19T00:26:53.399Z,52.35
2022-10-19T00:29:20.192Z,51.22
2022-10-19T00:31:52.530Z,55.08
2022-10-19T00:34:19.327Z,56.33
2022-10-19T00:36:46.554Z,55.00
2022-10-19T00:39:16.272Z,50.67
2022-10-19T00:41:45.313Z,55.65
2022-10-19T00:44:12.016Z,54.95
2022-10-19T00:46:41.691Z,51.03
2022-10-19T00:49:19.676Z,54.78
2022-10-19T00:51:52.093Z,58.30
2022-10-19T00:54:19.458Z,56.70
2022-10-19T00:56:48.222Z,54.45
2022-10-19T00:59:18.706Z,54.60
2022-10-19T01:01:46.541Z,56.13
2022-10-19T01:04:14.026Z,56.40
2022-10-19T01:06:41.581Z,59.25
2022-10-19T01:09:09.003Z,60.15
2022-10-19T01:12:01.306Z,57.50
2022-10-19T01:17:27.353Z,56.65
2022-10-19T01:20:11.684Z,57.92
2022-10-19T01:23:12.034Z,56.65
2022-10-19T01:26:00.621Z,57.45
2022-10-19T01:28:27.414Z,53.78
2022-10-19T01:31:03.317Z,52.05
2022-10-19T01:33:35.861Z,53.00
2022-10-19T01:36:28.881Z,55.78
2022-10-19T01:39:21.272Z,51.92
2022-10-19T01:42:00.083Z,48.15
2022-10-19T01:44:50.037Z,53.70
2022-10-19T01:47:26.183Z,50.33
2022-10-19T01:50:06.396Z,49.05
2022-10-19T01:52:35.335Z,48.58
2022-10-19T01:55:04.347Z,43.45
2022-10-19T01:57:37.002Z,47.58
2022-10-19T02:00:07.922Z,46.45
2022-10-19T02:02:37.815Z,44.88
2022-10-19T02:05:07.579Z,42.58
2022-10-19T02:07:37.569Z,43.58
2022-10-19T02:10:04.776Z,41.00
2022-10-19T02:12:34.235Z,43.22
2022-10-19T02:15:10.104Z,41.53
2022-10-19T02:17:43.980Z,42.35
2022-10-19T02:20:11.003Z,39.88
2022-10-19T02:22:37.929Z,38.03
2022-10-19T02:25:05.739Z,40.05
2022-10-19T02:27:33.158Z,37.28
2022-10-19T02:30:00.023Z,36.55
2022-10-19T02:32:27.838Z,34.47
2022-10-19T02:34:55.198Z,35.65
2022-10-19T02:37:25.525Z,34.97
2022-10-19T02:39:52.671Z,37.33
2022-10-19T02:42:35.445Z,32.45
2022-10-19T02:45:25.843Z,34.42
2022-10-19T02:48:00.768Z,36.08
2022-10-19T02:50:27.683Z,34.92
2022-10-19T02:52:54.452Z,36.55
2022-10-19T02:55:21.182Z,34.85
2022-10-19T02:57:47.915Z,35.58
2022-10-19T03:00:14.863Z,34.10
2022-10-19T03:02:41.768Z,35.65
2022-10-19T03:05:09.666Z,36.03
2022-10-19T03:07:36.869Z,36.17
2022-10-19T03:10:04.173Z,35.10
2022-10-19T03:12:30.943Z,34.13
2022-10-19T03:14:57.740Z,33.05
2022-10-19T03:17:24.465Z,35.72
2022-10-19T03:19:51.351Z,29.77
2022-10-19T03:22:18.121Z,31.48
2022-10-19T03:24:44.823Z,30.42
2022-10-19T03:27:11.589Z,32.60
2022-10-19T03:29:38.330Z,31.63
2022-10-19T03:32:05.263Z,29.58
2022-10-19T03:34:32.136Z,30.77
2022-10-19T03:36:59.309Z,27.90
2022-10-19T03:39:26.254Z,28.70
2022-10-19T03:41:52.992Z,28.05
2022-10-19T03:44:19.941Z,29.35
2022-10-19T03:46:46.728Z,26.88
2022-10-19T03:49:15.279Z,29.05
2022-10-19T03:51:42.077Z,27.63
2022-10-19T03:54:13.072Z,27.65
2022-10-19T03:56:39.815Z,26.17
2022-10-19T03:59:06.850Z,26.02
2022-10-19T04:01:37.354Z,25.85
2022-10-19T04:04:13.066Z,25.58
2022-10-19T04:06:42.449Z,24.90
2022-10-19T04:09:11.884Z,23.13
2022-10-19T04:11:38.848Z,21.92
2022-10-19T04:14:06.136Z,23.70
2022-10-19T04:16:33.586Z,20.27
2022-10-19T04:19:00.900Z,21.00
2022-10-19T04:21:39.646Z,21.33
2022-10-19T04:24:10.010Z,21.08
2022-10-19T04:26:45.481Z,20.40
2022-10-19T04:29:12.576Z,20.88
2022-10-19T04:31:40.521Z,19.40
2022-10-19T04:34:08.057Z,19.70
2022-10-19T04:36:35.898Z,16.88
2022-10-19T04:39:02.948Z,18.75
2022-10-19T04:41:29.671Z,18.15
2022-10-19T04:43:59.112Z,18.20
2022-10-19T04:46:27.238Z,18.00
2022-10-19T04:48:55.615Z,17.30
2022-10-19T04:51:23.391Z,17.70
2022-10-19T04:53:51.611Z,16.90
2022-10-19T04:56:21.736Z,17.55
2022-10-19T04:58:48.964Z,16.90
2022-10-19T05:01:20.915Z,17.63
2022-10-19T05:06:15.560Z,15.75
2022-10-19T05:08:42.422Z,15.68
2022-10-19T05:11:12.171Z,15.27
2022-10-19T05:13:39.193Z,16.25
2022-10-19T05:16:07.824Z,15.18
2022-10-19T05:18:35.210Z,14.77
2022-10-19T05:21:02.103Z,15.50
2022-10-19T05:23:29.774Z,15.60
2022-10-19T05:26:05.346Z,15.57
2022-10-19T05:28:32.768Z,15.38
2022-10-19T05:31:08.029Z,14.95
2022-10-19T05:33:35.063Z,15.60
2022-10-19T05:36:20.310Z,15.90
2022-10-19T05:38:49.029Z,14.93
2022-10-19T05:41:16.861Z,15.68
2022-10-19T05:43:44.208Z,15.98
2022-10-19T05:46:18.235Z,16.60
2022-10-19T05:48:45.786Z,16.55
2022-10-19T05:51:14.531Z,16.23
2022-10-19T05:53:41.905Z,16.35
2022-10-19T05:56:13.130Z,15.82
2022-10-19T05:58:39.902Z,15.85
2022-10-19T06:01:06.788Z,14.77
2022-10-19T06:03:33.554Z,15.63
2022-10-19T06:06:06.504Z,15.40
2022-10-19T06:08:33.695Z,14.88
2022-10-19T06:11:15.318Z,16.23
2022-10-19T06:13:43.745Z,16.45
2022-10-19T06:16:13.370Z,16.23
2022-10-19T06:18:40.540Z,16.13
2022-10-19T06:21:13.950Z,15.70
2022-10-19T06:26:11.542Z,16.58
2022-10-19T06:28:40.132Z,16.38
2022-10-19T06:31:09.333Z,16.70
2022-10-19T06:33:37.320Z,14.95
2022-10-19T06:36:11.894Z,15.18
2022-10-19T06:38:38.658Z,14.27
2022-10-19T06:41:05.987Z,13.98
2022-10-19T06:43:33.771Z,14.27
2022-10-19T06:46:04.954Z,15.10
2022-10-19T06:48:31.745Z,15.40
2022-10-19T06:50:59.808Z,15.88
2022-10-19T06:53:27.195Z,14.98
2022-10-19T06:55:53.899Z,15.27
2022-10-19T06:58:20.604Z,16.10
2022-10-19T07:00:57.680Z,16.27
2022-10-19T07:03:25.740Z,14.32
2022-10-19T07:05:57.422Z,13.68
2022-10-19T07:08:25.152Z,13.70
2022-10-19T07:11:01.148Z,17.10
2022-10-19T07:13:29.153Z,21.83
2022-10-19T07:16:02.693Z,23.48
2022-10-19T07:18:29.568Z,24.20
2022-10-19T07:20:58.415Z,26.95
2022-10-19T07:23:26.504Z,28.30
2022-10-19T07:25:55.193Z,28.42
2022-10-19T07:28:22.469Z,28.33
2022-10-19T07:30:49.256Z,29.65
2022-10-19T07:35:47.852Z,35.28
2022-10-19T07:38:14.649Z,38.78
2022-10-19T07:40:44.854Z,41.53
2022-10-19T07:43:14.159Z,44.25
2022-10-19T07:45:40.885Z,43.55
2022-10-19T07:48:07.701Z,46.05
2022-10-19T07:50:34.477Z,85.03
2022-10-19T07:53:03.397Z,54.92
2022-10-19T07:55:30.201Z,51.38
2022-10-19T07:58:01.389Z,49.58
2022-10-19T08:00:28.880Z,46.63
2022-10-19T08:03:19.333Z,48.40
2022-10-19T08:05:42.584Z,54.58
2022-10-19T08:08:09.362Z,55.05
2022-10-19T08:10:36.233Z,54.25
2022-10-19T08:13:03.072Z,55.97
2022-10-19T08:15:30.418Z,68.95
2022-10-19T08:17:57.318Z,64.25
2022-10-19T08:20:24.044Z,66.60
2022-10-19T08:22:55.014Z,60.65
2022-10-19T08:25:24.863Z,57.80
2022-10-19T08:27:51.800Z,59.00
2022-10-19T08:30:18.875Z,57.05
2022-10-19T08:32:45.858Z,60.00
2022-10-19T08:35:12.609Z,58.33
2022-10-19T08:37:45.062Z,56.28
2022-10-19T08:40:24.133Z,55.85
2022-10-19T08:43:25.938Z,59.28
2022-10-19T08:46:08.189Z,56.33
2022-10-19T08:48:38.036Z,55.42
2022-10-19T08:51:06.528Z,55.13
2022-10-19T08:53:37.769Z,53.72
2022-10-19T08:56:49.283Z,55.85
2022-10-19T08:59:47.027Z,56.42
2022-10-19T09:02:30.304Z,55.95
2022-10-19T09:05:05.731Z,57.22
2022-10-19T09:07:45.008Z,55.80
2022-10-19T09:10:14.851Z,54.92
2022-10-19T09:12:52.878Z,55.17
2022-10-19T09:15:30.150Z,55.28
2022-10-19T09:17:56.949Z,60.35
2022-10-19T09:20:31.703Z,56.35
2022-10-19T09:23:21.386Z,54.47
2022-10-19T09:25:50.505Z,50.45
2022-10-19T09:28:39.699Z,52.83
2022-10-19T09:31:18.197Z,51.67
2022-10-19T09:33:50.308Z,52.88
2022-10-19T09:36:22.807Z,49.90
2022-10-19T09:38:54.636Z,47.00
2022-10-19T09:41:23.533Z,50.92
2022-10-19T09:43:53.960Z,45.22
2022-10-19T09:46:42.076Z,45.38
2022-10-19T09:49:08.995Z,47.05
2022-10-19T09:51:50.475Z,48.33
2022-10-19T09:54:37.575Z,48.05
2022-10-19T09:57:05.717Z,49.72
2022-10-19T09:59:37.142Z,47.67
2022-10-19T10:02:15.029Z,50.53
2022-10-19T10:04:41.816Z,45.63
2022-10-19T10:07:16.269Z,44.63
2022-10-19T10:09:44.796Z,45.63
2022-10-19T10:12:15.386Z,49.20
2022-10-19T10:14:44.782Z,48.92
2022-10-19T10:17:19.083Z,45.80
2022-10-19T10:20:05.206Z,45.33
2022-10-19T10:22:37.757Z,46.80
2022-10-19T10:25:18.160Z,42.40
2022-10-19T10:27:56.460Z,47.25
2022-10-19T10:30:23.750Z,47.75
2022-10-19T10:32:53.277Z,47.03
2022-10-19T10:35:29.371Z,47.20
2022-10-19T10:38:17.321Z,47.13
2022-10-19T10:40:53.707Z,49.95
2022-10-19T10:43:24.581Z,46.90
2022-10-19T10:45:54.355Z,50.17
2022-10-19T10:48:37.781Z,48.88
2022-10-19T10:51:28.980Z,50.10
2022-10-19T10:54:17.424Z,50.67
2022-10-19T10:56:57.555Z,48.50
2022-10-19T10:59:33.519Z,47.67
2022-10-19T11:02:15.496Z,51.22
2022-10-19T11:04:52.153Z,49.17
2022-10-19T11:07:22.195Z,48.38
2022-10-19T11:09:59.165Z,49.22
2022-10-19T11:12:38.948Z,48.05
2022-10-19T11:15:27.909Z,46.90
2022-10-19T11:18:17.425Z,46.60
2022-10-19T11:21:12.569Z,46.67
2022-10-19T11:23:52.509Z,46.53
2022-10-19T11:26:37.848Z,46.92
2022-10-19T11:29:21.769Z,45.95
2022-10-19T11:31:54.672Z,47.72
2022-10-19T11:34:33.725Z,46.03
2022-10-19T11:37:12.814Z,44.72
2022-10-19T11:39:55.011Z,44.88
2022-10-19T11:42:40.217Z,45.10
2022-10-19T11:45:22.661Z,43.55
2022-10-19T11:48:00.754Z,44.53
2022-10-19T11:50:58.974Z,44.45
2022-10-19T11:54:14.585Z,44.15
2022-10-19T11:57:02.529Z,43.78
2022-10-19T11:59:49.823Z,42.17
2022-10-19T12:02:42.961Z,42.22
2022-10-19T12:05:50.684Z,42.03
2022-10-19T12:08:26.497Z,42.15
2022-10-19T12:11:16.748Z,44.10
2022-10-19T12:13:56.991Z,43.63
2022-10-19T12:16:37.734Z,43.70
2022-10-19T12:19:06.756Z,42.63
2022-10-19T12:21:39.425Z,43.92
2022-10-19T12:24:14.518Z,43.45
2022-10-19T12:26:42.330Z,43.17
2022-10-19T12:29:17.669Z,43.92
2022-10-19T12:31:46.122Z,53.95
2022-10-19T12:34:36.971Z,42.50
2022-10-19T12:37:21.155Z,41.28
2022-10-19T12:39:56.961Z,44.95
2022-10-19T12:42:56.644Z,42.83
2022-10-19T12:45:55.683Z,43.35
2022-10-19T12:48:24.618Z,43.55
2022-10-19T12:50:53.751Z,44.95
2022-10-19T12:53:36.167Z,44.45
2022-10-19T12:56:07.048Z,43.05
2022-10-19T12:58:47.924Z,44.85
2022-10-19T13:01:36.000Z,43.90
2022-10-19T13:04:10.823Z,44.80
2022-10-19T13:06:46.866Z,42.97
2022-10-19T13:09:34.023Z,44.92
2022-10-19T13:12:19.586Z,42.42
2022-10-19T13:14:56.033Z,45.88
2022-10-19T13:17:36.494Z,46.45
2022-10-19T13:20:15.305Z,43.85
2022-10-19T13:22:46.743Z,54.13
2022-10-19T13:25:21.696Z,45.25
2022-10-19T13:28:15.456Z,42.95
2022-10-19T13:30:42.305Z,46.55
2022-10-19T13:33:33.292Z,44.47
2022-10-19T13:36:00.140Z,46.33
2022-10-19T13:38:31.580Z,46.72
2022-10-19T13:41:01.504Z,44.35
2022-10-19T13:43:51.527Z,44.15
2022-10-19T13:46:30.079Z,42.42
2022-10-19T13:49:08.553Z,44.85
2022-10-19T13:52:02.729Z,44.35
2022-10-19T13:55:07.148Z,46.05
2022-10-19T13:57:47.860Z,46.08
2022-10-19T14:00:27.738Z,46.47
2022-10-19T14:03:23.672Z,41.95
2022-10-19T14:06:13.170Z,46.13
2022-10-19T14:09:16.817Z,45.63
2022-10-19T14:11:47.378Z,44.58
2022-10-19T14:14:23.780Z,43.38
2022-10-19T14:17:04.023Z,45.78
2022-10-19T14:19:41.126Z,45.03
2022-10-19T14:22:37.188Z,44.70
2022-10-19T14:25:06.214Z,44.33
2022-10-19T14:27:34.964Z,45.15
2022-10-19T14:30:03.308Z,44.35
2022-10-19T14:32:32.788Z,45.13
2022-10-19T14:35:21.878Z,47.08
2022-10-19T14:37:49.137Z,46.83
2022-10-19T14:40:26.431Z,45.40
2022-10-19T14:42:55.137Z,46.13
2022-10-19T14:45:28.173Z,45.42
2022-10-19T14:48:06.795Z,43.03
2022-10-19T14:50:49.897Z,42.97
2022-10-19T14:53:42.806Z,44.47
2022-10-19T14:56:28.796Z,43.45
2022-10-19T14:59:00.644Z,45.95
2022-10-19T15:01:27.625Z,46.10
2022-10-19T15:03:55.118Z,42.40
2022-10-19T15:06:32.663Z,44.92
2022-10-19T15:09:09.403Z,44.20
2022-10-19T15:11:46.845Z,42.58
2022-10-19T15:14:22.986Z,42.60
2022-10-19T15:17:00.804Z,43.10
2022-10-19T15:19:39.941Z,43.35
2022-10-19T15:22:17.741Z,43.67
2022-10-19T15:25:03.130Z,41.13
2022-10-19T15:27:34.931Z,43.90
2022-10-19T15:30:23.266Z,43.83
2022-10-19T15:33:02.099Z,42.38
2022-10-19T15:35:34.622Z,40.95
2022-10-19T15:38:25.542Z,44.17
2022-10-19T15:41:28.118Z,42.30
2022-10-19T15:43:59.874Z,41.97
2022-10-19T15:46:31.593Z,43.22
2022-10-19T15:49:01.311Z,42.92
2022-10-19T15:51:28.405Z,43.05
2022-10-19T15:53:56.578Z,45.17
2022-10-19T15:56:24.802Z,44.08
2022-10-19T15:58:53.170Z,43.20
2022-10-19T16:01:22.837Z,41.85
2022-10-19T16:03:49.928Z,41.88
2022-10-19T16:06:17.783Z,44.15
2022-10-19T16:08:48.378Z,44.58
2022-10-19T16:11:17.488Z,45.92
2022-10-19T16:13:44.818Z,44.83
2022-10-19T16:16:24.245Z,43.20
2022-10-19T16:18:52.309Z,42.13
2022-10-19T16:21:20.758Z,40.08
2022-10-19T16:23:47.773Z,39.40
2022-10-19T16:26:15.542Z,39.65
2022-10-19T16:28:42.848Z,41.22
2022-10-19T16:31:10.271Z,38.33
2022-10-19T16:33:37.100Z,36.92
2022-10-19T16:36:05.601Z,36.80
2022-10-19T16:38:32.684Z,37.08
2022-10-19T16:41:10.824Z,33.58
2022-10-19T16:43:38.081Z,33.85
2022-10-19T16:46:05.837Z,33.85
2022-10-19T16:48:33.283Z,33.42
2022-10-19T16:51:25.377Z,33.15
2022-10-19T16:53:55.402Z,33.17
2022-10-19T16:56:22.162Z,31.30
2022-10-19T16:58:49.049Z,33.42
2022-10-19T17:01:18.590Z,34.95
2022-10-19T17:03:47.075Z,32.42
2022-10-19T17:06:15.029Z,31.10
2022-10-19T17:09:20.161Z,33.45
2022-10-19T17:11:34.509Z,33.17
2022-10-19T17:14:05.065Z,32.90
2022-10-19T17:16:36.037Z,30.08
2022-10-19T17:19:04.226Z,35.42
2022-10-19T17:21:33.480Z,34.70
2022-10-19T17:24:02.843Z,32.75
2022-10-19T17:26:32.528Z,34.40
2022-10-19T17:28:59.891Z,31.88
2022-10-19T17:31:28.431Z,31.67
2022-10-19T17:33:56.234Z,33.58
2022-10-19T17:36:27.285Z,34.58
2022-10-19T17:38:58.904Z,32.92
2022-10-19T17:41:26.774Z,31.20
2022-10-19T17:43:53.975Z,31.05
2022-10-19T17:46:24.245Z,29.00
2022-10-19T17:48:53.991Z,26.83
2022-10-19T17:51:27.464Z,26.70
2022-10-19T17:53:56.431Z,24.00
2022-10-19T17:56:23.737Z,23.30
2022-10-19T17:58:52.522Z,22.55
2022-10-19T18:01:21.592Z,20.67
2022-10-19T18:03:49.030Z,18.55
2022-10-19T18:06:24.450Z,18.13
2022-10-19T18:08:53.825Z,15.07
2022-10-19T18:11:22.572Z,13.55
2022-10-19T18:13:50.723Z,12.07
2022-10-19T18:16:23.759Z,12.50
2022-10-19T18:18:53.934Z,12.27
2022-10-19T18:21:26.597Z,11.88
2022-10-19T18:23:55.300Z,10.60
2022-10-19T18:26:25.458Z,10.05
2022-10-19T18:28:53.194Z,7.05
2022-10-19T18:31:22.692Z,7.72
2022-10-19T18:33:56.852Z,8.18
2022-10-19T18:36:24.096Z,7.82
2022-10-19T18:38:55.534Z,7.32
2022-10-19T18:41:22.930Z,6.43
2022-10-19T18:43:55.097Z,6.32
2022-10-19T18:46:23.395Z,7.15
2022-10-19T18:48:50.292Z,4.97
2022-10-19T18:51:18.870Z,5.38
2022-10-19T18:53:47.162Z,5.28
2022-10-19T18:56:16.610Z,3.53
2022-10-19T18:58:44.089Z,3.45
2022-10-19T19:01:16.499Z,3.00
2022-10-19T19:03:46.338Z,2.70
2022-10-19T19:06:20.839Z,3.35
2022-10-19T19:08:48.108Z,3.28
2022-10-19T19:11:20.516Z,4.20
2022-10-19T19:13:53.726Z,3.22
2022-10-19T19:16:21.452Z,2.80
2022-10-19T19:18:48.504Z,2.63
2022-10-19T19:21:25.891Z,2.97
2022-10-19T19:23:54.394Z,2.38
2022-10-19T19:26:22.746Z,2.80
2022-10-19T19:28:51.721Z,2.38
2022-10-19T19:31:19.684Z,3.03
2022-10-19T19:33:47.194Z,2.85
2022-10-19T19:36:16.069Z,3.00
2022-10-19T19:38:43.509Z,2.72
2022-10-19T19:41:14.457Z,2.63
2022-10-19T19:43:42.566Z,3.10
2022-10-19T19:46:16.775Z,2.97
2022-10-19T19:48:45.567Z,3.38
2022-10-19T19:51:14.502Z,3.25
2022-10-19T19:53:41.352Z,3.40
2022-10-19T19:56:10.778Z,4.55
2022-10-19T19:58:37.664Z,4.45
2022-10-19T20:01:15.210Z,5.40
2022-10-19T20:03:43.310Z,4.43
2022-10-19T20:06:10.690Z,5.63
2022-10-19T20:08:38.095Z,5.65
2022-10-19T20:11:09.008Z,5.28
2022-10-19T20:13:36.144Z,6.43
2022-10-19T20:16:14.807Z,6.35
2022-10-19T20:18:45.144Z,6.03
2022-10-19T20:21:12.731Z,4.93
2022-10-19T20:23:45.361Z,4.50
2022-10-19T20:26:20.839Z,4.75
2022-10-19T20:28:48.257Z,4.82
2022-10-19T20:31:15.638Z,5.38
2022-10-19T20:33:44.102Z,5.78
2022-10-19T20:36:23.014Z,6.03
2022-10-19T20:38:52.661Z,6.35
2022-10-19T20:41:20.748Z,6.63
2022-10-19T20:43:49.809Z,6.82
2022-10-19T20:46:22.018Z,7.63
2022-10-19T20:48:49.078Z,7.82
2022-10-19T20:51:22.376Z,8.13
2022-10-19T20:53:51.605Z,8.40
2022-10-19T20:56:23.369Z,9.00
2022-10-19T20:59:00.570Z,8.10
2022-10-19T21:01:29.305Z,7.80
2022-10-19T21:04:01.485Z,7.22
2022-10-19T21:06:32.186Z,6.88
2022-10-19T21:08:59.996Z,6.60
2022-10-19T21:11:38.600Z,6.20
2022-10-19T21:14:08.271Z,7.50
2022-10-19T21:16:38.503Z,8.20
2022-10-19T21:19:20.364Z,7.50
2022-10-19T21:21:49.919Z,6.88
2022-10-19T21:24:19.762Z,6.18
2022-10-19T21:26:47.323Z,7.07
2022-10-19T21:29:15.618Z,8.05
2022-10-19T21:31:47.882Z,8.50
2022-10-19T21:34:24.230Z,8.07
2022-10-19T21:36:51.449Z,7.45
2022-10-19T21:39:19.219Z,7.30
2022-10-19T21:41:46.476Z,7.30
2022-10-19T21:44:14.695Z,8.30
2022-10-19T21:46:43.546Z,8.05
2022-10-19T21:49:13.548Z,8.02
2022-10-19T21:51:43.343Z,8.70
2022-10-19T21:54:16.817Z,8.05
2022-10-19T21:56:44.780Z,8.57
2022-10-19T21:59:12.205Z,8.07
2022-10-19T22:01:41.114Z,7.88
2022-10-19T22:04:12.141Z,8.32
2022-10-19T22:06:39.603Z,7.50
2022-10-19T22:09:08.621Z,7.22
2022-10-19T22:11:35.490Z,7.43
2022-10-19T22:14:03.469Z,7.50
2022-10-19T22:16:31.793Z,7.80
2022-10-19T22:18:58.758Z,8.85
2022-10-19T22:21:30.525Z,7.63
2022-10-19T22:26:37.435Z,7.00
2022-10-19T22:29:06.075Z,7.78
2022-10-19T22:31:34.125Z,7.85
2022-10-19T22:34:02.569Z,9.20
2022-10-19T22:36:29.583Z,10.38
2022-10-19T22:38:56.486Z,10.70
2022-10-19T22:42:19.821Z,10.02
2022-10-19T22:45:42.931Z,9.05
2022-10-19T22:49:05.974Z,8.07
2022-10-19T22:52:29.081Z,9.45
2022-10-19T22:54:55.899Z,9.50
2022-10-19T22:57:22.672Z,9.10
2022-10-19T22:59:49.405Z,11.57
2022-10-19T23:02:16.231Z,10.82
2022-10-19T23:04:43.004Z,8.48
2022-10-19T23:07:12.885Z,8.32
2022-10-19T23:09:39.809Z,6.88
2022-10-19T23:12:06.589Z,8.02
2022-10-19T23:14:33.294Z,7.65
2022-10-19T23:17:00.123Z,9.43
2022-10-19T23:19:26.906Z,8.43
2022-10-19T23:21:53.686Z,6.97
2022-10-19T23:24:20.528Z,6.00
2022-10-19T23:26:47.328Z,5.38
2022-10-19T23:29:15.060Z,5.45
2022-10-19T23:31:41.799Z,5.50
2022-10-19T23:34:08.737Z,4.70
2022-10-19T23:36:35.548Z,6.32
2022-10-19T23:39:02.296Z,7.75
2022-10-19T23:41:29.131Z,7.97
2022-10-19T23:43:55.849Z,6.60
2022-10-19T23:46:22.792Z,6.70
2022-10-19T23:48:49.534Z,6.07
2022-10-19T23:51:18.946Z,5.38
2022-10-19T23:53:47.919Z,5.68
2022-10-19T23:56:16.533Z,5.60
2022-10-19T23:58:43.953Z,5.97
